Nearby METAR Reports

 

KMTN - Baltimore/Martin, Maryland, USA
Distance from station: SSE 8mi, 13km
Updated: Mon, 30-Mar-2015 9:50pm EDT
Partly cloudy
Partly cloudy
 Wind from W
Wind: W 8 mph , 13 km/h
Temperature: 52°F , 11°C
Dew Point: 25°F , -4°C
Humidity: 35%
Barometer: 29.96 inHg , 1014.6 hPa
Clouds: Partly cloudy
Visibility: 10 miles , 16 km
Cloud details: Partly cloudy 10000 ft
2015/03/31 01:50 KMTN 310150Z 27007KT 10SM SCT100 11/M04 A2996
KDMH - Baltimore/Dwntwn, Maryland, USA
Distance from station: SW 12mi, 19km
Updated: Mon, 30-Mar-2015 9:54pm EDT

 
Temperature: 52°F , 11°C
Dew Point: 21°F , -6°C
Humidity: 30%
Barometer: 29.95 inHg , 1014.2 hPa
2015/03/31 01:54 KDMH 310154Z AUTO 11/M06 A2995 RMK AO1 SLP140 T01111061
 
KBWI - Balto/Wash Intl, Maryland, USA
Distance from station: SSW 20mi, 33km
Updated: Mon, 30-Mar-2015 9:54pm EDT
Few Clouds
Few Clouds
 Wind from WNW
Wind: WNW 7 mph , 11 km/h
Temperature: 48°F , 9°C
Wind Chill: 45°F , 7°C
Dew Point: 21°F , -6°C
Humidity: 34%
Barometer: 29.94 inHg , 1013.9 hPa
Clouds: Few Clouds
Visibility: 10 miles , 16 km
Cloud details: Few Clouds 25000 ft
2015/03/31 01:54 KBWI 310154Z 30006KT 10SM FEW250 09/M06 A2994 RMK AO2 SLP138 T00941056
KDMW - Carroll Cnty, Maryland, USA
Distance from station: WNW 30mi, 48km
Updated: Mon, 30-Mar-2015 9:55pm EDT
Clear
Clear
 Wind from W
Wind: W 8 mph , 13 km/h
Temperature: 46°F , 8°C
Wind Chill: 42°F , 6°C
Dew Point: 16°F , -9°C
Humidity: 29%
Barometer: 29.94 inHg , 1013.9 hPa
Clouds: Clear
Visibility: 10 miles , 16 km
2015/03/31 01:55 KDMW 310155Z AUTO 27007KT 10SM CLR 08/M09 A2994 RMK AO2
 
KNAK - Annapolis/Naval, Maryland, USA
Distance from station: S 30mi, 48km
Updated: Mon, 30-Mar-2015 9:54pm EDT
Clear
Clear
 Wind from NW
Wind: NW 9 mph , 15 km/h
Temperature: 52°F , 11°C
Dew Point: 27°F , -3°C
Humidity: 38%
Barometer: 29.94 inHg , 1013.9 hPa
Clouds: Clear
Visibility: 10 miles , 16 km
2015/03/31 01:54 KNAK 310154Z AUTO 31008KT 10SM CLR 11/M03 A2994 RMK AO2 SLP140 T01061033
KW29 - Stevensville, Maryland, USA
Distance from station: SSE 31mi, 50km
Updated: Mon, 30-Mar-2015 9:55pm EDT

 Wind from NNW
Wind: NNW 3 mph , 6 km/h
Temperature: 46°F , 8°C
Dew Point: 28°F , -2°C
Humidity: 50%
Barometer: 29.96 inHg , 1014.6 hPa
Visibility: 10 miles , 16 km
2015/03/31 01:55 KW29 310155Z AUTO 33003KT 10SM 08/M02 A2996 RMK AO1
 
KCGS - College Park, Maryland, USA
Distance from station: SW 38mi, 61km
Updated: Mon, 30-Mar-2015 9:55pm EDT
Clear
Clear
 Wind from NW
Wind: NW 5 mph , 7 km/h
Temperature: 52°F , 11°C
Dew Point: 21°F , -6°C
Humidity: 30%
Barometer: 29.95 inHg , 1014.2 hPa
Clouds: Clear
Visibility: 10 miles , 16 km
2015/03/31 01:55 KCGS 310155Z AUTO 32004KT 10SM CLR 11/M06 A2995 RMK AO1
KGAI - Gaithersburg, Maryland, USA
Distance from station: WSW 40mi, 65km
Updated: Mon, 30-Mar-2015 9:55pm EDT
Clear
Clear
 Wind from calm
Wind: Calm
Temperature: 46°F , 8°C
Dew Point: 19°F , -7°C
Humidity: 34%
Barometer: 29.99 inHg , 1015.6 hPa
Clouds: Clear
Visibility: 10 miles , 16 km
2015/03/31 01:55 KGAI 310155Z AUTO 00000KT 10SM CLR 08/M07 A2999 RMK AO1
 
KTHV - York, Pennsylvania, USA
Distance from station: NNW 40mi, 65km
Updated: Mon, 30-Mar-2015 9:53pm EDT
Clear
Clear
 Wind from W
Wind: W 5 mph , 7 km/h
Temperature: 46°F , 8°C
Wind Chill: 44°F , 7°C
Dew Point: 21°F , -6°C
Humidity: 37%
Barometer: 29.92 inHg , 1013.2 hPa
Clouds: Clear
Visibility: 10 miles , 16 km
2015/03/31 01:53 KTHV 310153Z AUTO 26004KT 10SM CLR 08/M06 A2992 RMK AO2 SLP135 T00781056
KFDK - Frederick, Maryland, USA
Distance from station: W 47mi, 75km
Updated: Mon, 30-Mar-2015 9:50pm EDT
Clear
Clear
 Wind from SE
Wind: SE 3 mph , 6 km/h
Temperature: 48°F , 9°C
Dew Point: 14°F , -10°C
Humidity: 25%
Barometer: 29.97 inHg , 1014.9 hPa
Clouds: Clear
Visibility: 10 miles , 16 km
2015/03/31 01:50 KFDK 310150Z AUTO 14003KT 10SM CLR 09/M10 A2997 RMK AO2
 
KESN - Easton/Newnam, Maryland, USA
Distance from station: SSE 48mi, 78km
Updated: Mon, 30-Mar-2015 10:12pm EDT
Clear
Clear
 Wind from N
Wind: N 6 mph , 9 km/h
Temperature: 52°F , 11°C
Dew Point: 28°F , -2°C
Humidity: 41%
Barometer: 29.99 inHg , 1015.6 hPa
Clouds: Clear
Visibility: 10 miles , 16 km
2015/03/31 02:12 KESN 310212Z AUTO 35005KT 10SM CLR 11/M02 A2999 RMK AO2 T01061020
KDCA - Washington/Natl, Washington D.c., USA
Distance from station: SW 49mi, 79km
Updated: Mon, 30-Mar-2015 9:52pm EDT
Few Clouds
Few Clouds
 Wind from NW
Wind: NW 5 mph , 7 km/h
Temperature: 55°F , 13°C
Dew Point: 21°F , -6°C
Humidity: 26%
Barometer: 29.97 inHg , 1014.9 hPa
Clouds: Few Clouds
Visibility: 10 miles , 16 km
Cloud details: Few Clouds 12000 ft
2015/03/31 01:52 KDCA 310152Z 31004KT 10SM FEW120 13/M06 A2997 RMK AO2 SLP147 T01281061
 
KLNS - Lancaster, Pennsylvania, USA
Distance from station: N 49mi, 79km
Updated: Mon, 30-Mar-2015 9:53pm EDT
Clear
Clear
 Wind from W
Wind: W 9 mph , 15 km/h
Temperature: 43°F , 6°C
Wind Chill: 38°F , 3°C
Dew Point: 23°F , -5°C
Humidity: 46%
Barometer: 29.90 inHg , 1012.5 hPa
Clouds: Clear
Visibility: 10 miles , 16 km
2015/03/31 01:53 KLNS 310153Z 27008KT 10SM CLR 06/M05 A2990 RMK AO2 SLP125 T00561050
KILG - Wilmington, Delaware, USA
Distance from station: ENE 50mi, 81km
Updated: Mon, 30-Mar-2015 9:51pm EDT
Clear
Clear
 Wind from W
Wind: W 12 mph , 19 km/h
Temperature: 48°F , 9°C
Wind Chill: 43°F , 6°C
Dew Point: 21°F , -6°C
Humidity: 34%
Barometer: 29.92 inHg , 1013.2 hPa
Clouds: Clear
Visibility: 10 miles , 16 km
2015/03/31 01:51 KILG 310151Z 28010KT 10SM CLR 09/M06 A2992 RMK AO2 SLP131 T00891056